Grand Rapids, MN (55730)

7:29 PM CDT on August 27, 2015 (GMT -0500)
Southwest | | Change Station
CLOSE
Current Station
Personal Weather Station
Location: Grand Rapids, MN
Elevation: 1322 ft
Nearby Weather Stations

Elev 1322 ft 47.23 °N, 93.54 °W | Updated 1 minute ago

Partly Cloudy
Partly Cloudy
71.2 °F
Feels Like 74 °F
N
0.0
Wind Variable Wind from East
Gusts 0.7 mph

Today
High -- | Low -- °F
--% Chance of Precip.
Yesterday
High -- | Low -- °F
Precip. -- in
6:26 AM 8:04 PM
Waxing Gibbous, 95% visible
Pressure 30.01 in
Visibility 10.0 miles
Clouds Overcast 3500 ft
Heat Index 74 °F
Dew Point 62 °F
Humidity 73%
Rainfall 0.00 in
Snow Depth Not available.
UV 0 out of 12
Pollen 10.20 out of 12
Air Quality Not available.
Flu Activity Not available.
METAR KHIB 272353Z AUTO 14004KT 10SM OVC035 21/16 A2999 RMK AO2 SLP161 T02110156 10239 20211 56005
Pressure 30.01 in
Visibility 10.0 miles
Clouds Overcast 3500 ft
Heat Index 74 °F
Dew Point 62 °F
Humidity 73%
Rainfall 0.00 in
Snow Depth Not available.
UV 0 out of 12
Pollen 10.20 out of 12
Air Quality Not available.
Flu Activity Not available.
METAR KHIB 272353Z AUTO 14004KT 10SM OVC035 21/16 A2999 RMK AO2 SLP161 T02110156 10239 20211 56005

10-Day Weather Forecast

×

Almanac

Astronomy

Aug. 27, 2015 Rise Set
Actual Time
Civil Twilight
Nautical Twilight
Astronomical Twilight
Moon
Length of Visible Light
Length of Day
Tomorrow will be .
, % of the Moon is Illuminated

Today's Extremes

State Highs State Lows

Community

WunderPhotos

Upload Photos

1,850,272 photos uploaded!

WunderBlogs® & News

Nearby

Air Quality

  Air Quality AQ Index Pollutant
Not available.

Snow Depth

Station Depth Elevation

Earthquake Activity

City Distance Mag. Time & Date
Minimum magnitude displayed is 2.5.

Coastal Water Temperatures

Place Temperature

Stations

Nearby Weather Stations

Station Location Temp. Windchill Dew Point Humidity Wind Precip. Elev Updated Type